Latest Weather Observations for Moss Vale

IDN60801

Issued at 5:35 pm EST Saturday 20 September 2014 (issued every 30 minutes, with the page automatically refreshed every 10 minutes)

About weather observations | Map of weather stations | Latest weather observations for NSW | Other Formats
Station Details ID: 068239 Name: MOSS VALE AWS Lat: -34.53 Lon: 150.42 Height: 678.4 m
Data from the previous 72 hours. | See also: Recent months at Moss Vale
Date/Time
EST
Temp
°C
App
Temp
°C
Dew
Point
Rel
Hum
%
Delta-T
°C
Wind Press
QNH
hPa
Press
MSL
hPa
Rain
since 9 am
mm
Dir
 
Spd
km/h
Gust
km/h
Spd
kts
Gust
kts
20/05:30pm 9.8 5.9 3.5 65 2.8 SE 13 19 7 10 1025.1 1024.8 0.0
20/05:00pm 10.6 5.1 4.1 64 3.0 SE 22 30 12 16 1024.4 1024.0 0.0
20/04:30pm 11.3 6.1 3.8 60 3.5 SE 20 24 11 13 1024.0 1023.7 0.0
20/04:00pm 12.0 6.5 4.2 59 3.6 SSE 22 26 12 14 1023.6 1023.3 0.0
20/03:30pm 12.8 7.7 4.3 56 4.0 SSE 20 28 11 15 1023.5 1023.1 0.0
20/03:00pm 13.8 10.6 5.2 56 4.2 SE 11 17 6 9 1023.3 1022.9 0.0
20/02:30pm 13.5 9.4 4.4 54 4.3 E 15 22 8 12 1023.3 1022.9 0.0
20/02:00pm 13.4 9.6 4.0 53 4.4 SSE 13 19 7 10 1023.5 1023.1 0.0
20/01:30pm 13.1 9.7 4.0 54 4.3 SSE 11 19 6 10 1023.6 1023.3 0.0
20/01:00pm 12.7 9.3 3.9 55 4.1 SE 11 15 6 8 1023.9 1023.6 0.0
20/12:30pm 13.6 11.6 6.2 61 3.7 ESE 6 9 3 5 1023.9 1023.6 0.0
20/12:00pm 12.5 10.0 4.5 58 3.8 ENE 7 11 4 6 1024.4 1024.0 0.0
20/11:30am 12.1 8.9 2.8 53 4.2 SSE 9 15 5 8 1024.4 1024.0 0.0
20/11:00am 11.2 7.7 3.5 59 3.5 S 11 19 6 10 1024.5 1024.1 0.0
20/10:30am 11.3 7.5 5.6 68 2.7 ESE 15 20 8 11 1024.7 1024.3 0.0
20/10:00am 9.6 5.6 2.9 63 3.0 SE 13 20 7 11 1024.9 1024.6 0.0
20/09:30am 9.8 4.9 4.2 68 2.6 SE 19 24 10 13 1025.0 1024.7 0.0
20/09:00am 9.0 4.0 3.8 70 2.3 SSE 19 30 10 16 1024.7 1024.3 0.0
20/08:30am 8.2 2.2 3.1 70 2.3 SSE 24 32 13 17 1024.4 1024.0 0.0
20/08:00am 7.0 3.4 3.1 76 1.7 S 11 15 6 8 1024.2 1023.8 0.0
20/07:30am 4.6 1.6 2.0 83 1.1 WSW 7 7 4 4 1023.9 1023.6 0.0
20/07:00am 2.7 0.9 1.4 91 0.5 CALM 0 0 0 0 1023.6 1023.3 0.0
20/06:30am 0.9 -1.1 -0.4 91 0.5 CALM 0 0 0 0 1023.1 1022.7 0.0
20/06:00am 0.7 -1.4 -0.6 91 0.5 CALM 0 0 0 0 1022.6 1022.2 0.0
20/05:30am 1.1 -1.3 -0.2 91 0.5 WSW 2 6 1 3 1022.1 1021.7 0.0
20/05:00am 0.9 -1.1 -0.4 91 0.5 CALM 0 0 0 0 1021.7 1021.3 0.0
20/04:30am 1.0 -1.0 -0.3 91 0.5 CALM 0 0 0 0 1021.4 1021.0 0.0
20/04:00am 0.8 -1.3 -0.5 91 0.5 CALM 0 6 0 3 1021.1 1020.7 0.0
20/03:45am 1.0 -2.2 -0.3 91 0.5 SSW 6 7 3 4 1020.9 1020.5 0.0
20/03:30am 1.1 -0.9 -0.2 91 0.5 CALM 0 0 0 0 1020.8 1020.4 0.0
20/03:11am 0.9 -1.1 -0.4 91 0.5 CALM 0 0 0 0 1020.7 1020.3 0.0
20/03:00am 1.4 -1.7 0.1 91 0.5 WSW 6 7 3 4 1020.8 1020.4 0.0
20/02:58am 1.4 -1.7 0.1 91 0.5 WSW 6 9 3 5 1020.8 1020.4 0.0
20/02:30am 1.3 -1.1 0.0 91 0.5 W 2 7 1 4 1020.9 1020.5 0.0
20/02:00am 1.7 -0.2 0.4 91 0.5 CALM 0 0 0 0 1021.1 1020.7 0.0
20/01:51am 2.0 0.1 0.7 91 0.5 CALM 0 0 0 0 1021.1 1020.7 0.0
20/01:33am 2.1 0.2 0.8 91 0.5 CALM 0 0 0 0 1021.3 1020.9 0.0
20/01:30am 2.1 0.2 0.8 91 0.5 CALM 0 0 0 0 1021.3 1020.9 0.0
20/01:00am 1.5 -0.5 0.0 90 0.6 CALM 0 0 0 0 1021.4 1021.0 0.0
20/12:30am 2.3 -0.3 0.8 90 0.6 SSW 4 6 2 3 1021.6 1021.2 0.0
20/12:00am 3.0 0.9 2.0 93 0.4 W 2 6 1 3 1021.6 1021.2 0.0
 
Date/Time
EST
Temp
°C
App
Temp
°C
Dew
Point
Rel
Hum
%
Delta-T
°C
Wind Press
QNH
hPa
Press
MSL
hPa
Rain
since 9 am
mm
Dir
 
Spd
km/h
Gust
km/h
Spd
kts
Gust
kts
19/11:50pm 2.7 0.9 1.5 92 0.5 CALM 0 0 0 0 1021.6 1021.2 0.0
19/11:30pm 2.8 1.1 1.6 92 0.5 CALM 0 0 0 0 1021.7 1021.3 0.0
19/11:00pm 3.5 1.9 2.3 92 0.5 CALM 0 0 0 0 1021.8 1021.4 0.0
19/10:30pm 3.7 2.1 2.4 91 0.5 CALM 0 0 0 0 1021.9 1021.5 0.0
19/10:15pm 3.8 2.2 2.3 90 0.6 CALM 0 0 0 0 1022.0 1021.6 0.0
19/10:00pm 4.0 1.3 2.5 90 0.6 NW 6 7 3 4 1022.0 1021.6 0.0
19/09:51pm 3.9 1.1 2.3 89 0.7 NNW 6 7 3 4 1022.0 1021.6 0.0
19/09:30pm 4.4 1.7 2.9 90 0.6 N 6 7 3 4 1022.0 1021.6 0.0
19/09:00pm 4.3 1.5 3.0 91 0.6 N 7 9 4 5 1022.0 1021.6 0.0
19/08:30pm 5.7 3.0 3.7 87 0.9 SE 7 7 4 4 1021.9 1021.5 0.0
19/08:00pm 5.8 3.1 3.5 85 1.0 SE 7 9 4 5 1021.8 1021.4 0.0
19/07:30pm 6.6 4.1 3.6 81 1.3 NE 6 7 3 4 1021.3 1020.9 0.0
19/07:00pm 7.5 4.8 3.7 77 1.7 ENE 7 9 4 5 1020.8 1020.4 0.0
19/06:30pm 8.2 5.2 3.9 74 1.9 E 9 11 5 6 1020.5 1020.1 0.0
19/06:00pm 9.3 6.1 2.9 64 2.8 E 9 13 5 7 1020.1 1019.7 0.0
19/05:30pm 12.9 7.6 -3.8 31 6.6 W 15 22 8 12 1019.6 1019.1 0.0
19/05:00pm 13.8 8.4 -4.8 27 7.3 WSW 15 24 8 13 1019.1 1018.7 0.0
19/04:30pm 14.3 8.3 -7.1 22 8.0 WSW 17 28 9 15 1018.8 1018.4 0.0
19/04:00pm 14.4 8.0 -5.3 25 7.7 WSW 20 28 11 15 1018.6 1018.2 0.0
19/03:30pm 14.7 8.3 -4.6 26 7.7 WSW 20 32 11 17 1018.6 1018.2 0.0
19/03:00pm 14.7 8.4 -6.2 23 8.0 W 19 28 10 15 1018.6 1018.2 0.0
19/02:30pm 14.7 9.3 -1.4 33 6.8 WSW 17 28 9 15 1018.8 1018.4 0.0
19/02:00pm 14.2 8.1 -2.7 31 6.9 SW 20 28 11 15 1018.9 1018.5 0.0
19/01:30pm 13.7 6.7 -3.1 31 6.8 SW 24 30 13 16 1019.0 1018.6 0.0
19/01:00pm 13.7 7.7 -2.7 32 6.7 WSW 19 30 10 16 1019.6 1019.1 0.0
19/12:30pm 13.0 6.8 -3.3 32 6.5 WSW 20 28 11 15 1019.9 1019.5 0.0
19/12:00pm 12.8 7.1 -3.5 32 6.5 WSW 17 32 9 17 1020.2 1019.8 0.0
19/11:30am 12.8 7.6 -0.1 41 5.5 WSW 17 26 9 14 1020.7 1020.3 0.0
19/11:00am 11.6 6.3 2.1 52 4.2 SW 19 24 10 13 1021.2 1020.8 0.0
19/10:30am 11.0 5.1 -2.1 40 5.3 WSW 19 28 10 15 1021.2 1020.8 0.0
19/10:00am 10.4 5.1 -0.4 47 4.5 W 17 22 9 12 1021.4 1021.0 0.0
19/09:30am 8.9 3.1 -1.2 49 4.1 WSW 19 28 10 15 1021.6 1021.2 0.0
19/09:00am 8.1 1.9 -0.1 56 3.4 WSW 22 30 12 16 1021.8 1021.4 0.0
19/08:30am 7.2 2.5 0.9 64 2.6 WSW 15 20 8 11 1021.9 1021.5 0.0
19/08:00am 6.0 2.2 1.9 75 1.7 W 11 15 6 8 1021.9 1021.5 0.0
19/07:30am 3.7 0.5 0.7 81 1.2 W 7 11 4 6 1021.6 1021.2 0.0
19/07:00am 1.8 -1.3 -0.1 87 0.7 W 6 9 3 5 1021.4 1021.0 0.0
19/06:30am 0.1 -3.8 -1.3 90 0.5 WSW 9 11 5 6 1021.2 1020.8 0.0
19/06:12am 0.0 -3.5 -1.3 91 0.5 WSW 7 9 4 5 1021.1 1020.7 0.0
19/06:00am -0.3 -3.8 -1.6 91 0.5 WNW 7 11 4 6 1020.8 1020.4 0.0
19/05:55am -0.4 -4.0 -1.8 90 0.5 NW 7 9 4 5 1020.8 1020.4 0.0
19/05:30am 0.6 -2.8 -0.8 90 0.5 W 7 9 4 5 1020.7 1020.3 0.0
19/05:00am 0.5 -2.0 -1.3 88 0.7 W 2 6 1 3 1020.3 1019.9 0.0
19/04:30am 1.1 -1.7 -0.5 89 0.6 W 4 7 2 4 1020.2 1019.8 0.0
19/04:00am 1.2 -0.9 -0.9 86 0.8 CALM 0 0 0 0 1020.2 1019.8 0.0
19/03:30am 1.6 -0.9 -0.8 84 0.9 W 2 7 1 4 1020.0 1019.6 0.0
19/03:00am 1.7 -1.5 -0.7 84 0.9 WNW 6 6 3 3 1020.1 1019.7 0.0
19/02:30am 1.7 -1.2 -1.2 81 1.1 W 4 9 2 5 1020.1 1019.7 0.0
19/02:00am 2.2 -1.3 -1.1 79 1.2 W 7 9 4 5 1020.2 1019.8 0.0
19/01:30am 3.0 -1.5 -0.6 77 1.4 WSW 13 17 7 9 1020.3 1019.9 0.0
19/01:00am 3.6 -0.9 -0.2 76 1.5 WSW 13 17 7 9 1020.6 1020.2 0.0
19/12:30am 3.7 -0.8 -0.3 75 1.6 WSW 13 17 7 9 1020.7 1020.3 0.0
19/12:00am 4.1 -0.3 0.6 78 1.4 WSW 13 19 7 10 1020.8 1020.4 0.0
 
Date/Time
EST
Temp
°C
App
Temp
°C
Dew
Point
Rel
Hum
%
Delta-T
°C
Wind Press
QNH
hPa
Press
MSL
hPa
Rain
since 9 am
mm
Dir
 
Spd
km/h
Gust
km/h
Spd
kts
Gust
kts
18/11:30pm 4.6 -0.5 0.6 75 1.6 W 17 20 9 11 1020.9 1020.5 0.0
18/11:00pm 4.6 0.2 0.6 75 1.6 W 13 17 7 9 1020.9 1020.5 0.0
18/10:30pm 4.6 0.2 0.4 74 1.7 W 13 17 7 9 1020.8 1020.4 0.0
18/10:00pm 5.2 1.5 0.2 70 2.0 W 9 13 5 7 1020.9 1020.5 0.0
18/09:30pm 5.5 1.1 0.3 69 2.1 WSW 13 17 7 9 1021.1 1020.7 0.0
18/09:00pm 6.0 2.0 0.3 67 2.3 W 11 13 6 7 1021.1 1020.7 0.0
18/08:30pm 5.8 2.5 0.0 66 2.3 SW 7 11 4 6 1020.9 1020.5 0.0
18/08:00pm 6.3 2.6 -0.2 63 2.6 SW 9 11 5 6 1020.8 1020.4 0.0
18/07:30pm 6.7 3.0 -0.1 62 2.8 WSW 9 13 5 7 1020.5 1020.1 0.0
18/07:00pm 7.3 2.1 0.3 61 2.9 W 17 24 9 13 1020.1 1019.7 0.0
18/06:30pm 7.8 2.3 0.3 59 3.1 W 19 26 10 14 1019.8 1019.4 0.0
18/06:00pm 8.2 2.0 -0.3 55 3.5 WSW 22 30 12 16 1019.6 1019.1 0.0
18/05:30pm 9.4 3.2 -0.2 51 4.0 WSW 22 32 12 17 1019.2 1018.8 0.0
18/05:00pm 10.3 2.6 0.1 49 4.3 W 30 41 16 22 1018.6 1018.2 0.0
18/04:30pm 11.0 4.4 2.3 55 3.9 W 26 35 14 19 1018.3 1017.8 0.0
18/04:00pm 11.4 4.6 1.1 49 4.5 WSW 26 32 14 17 1017.9 1017.4 0.0
18/03:30pm 11.3 4.7 -0.5 44 5.0 WSW 24 32 13 17 1017.5 1017.1 0.0
18/03:00pm 11.8 5.0 -2.0 38 5.6 WSW 24 35 13 19 1017.2 1016.8 0.0
18/02:30pm 12.1 5.5 -0.4 42 5.3 WSW 24 35 13 19 1017.1 1016.6 0.0
18/02:00pm 12.1 5.9 -0.1 43 5.2 SW 22 33 12 18 1017.0 1016.5 0.0
18/01:30pm 11.6 5.6 -1.2 41 5.3 SW 20 28 11 15 1017.2 1016.8 0.0
18/01:00pm 11.3 5.4 -0.8 43 5.0 WSW 20 32 11 17 1017.3 1016.9 0.0
18/12:30pm 11.4 5.6 -1.4 41 5.3 SW 19 30 10 16 1017.5 1017.1 0.0
18/12:00pm 11.0 4.4 -3.1 37 5.6 W 22 32 12 17 1017.7 1017.3 0.0
18/11:30am 10.8 4.2 -3.3 37 5.5 WSW 22 33 12 18 1018.0 1017.5 0.0
18/11:00am 10.5 4.2 -0.9 45 4.7 WSW 22 30 12 16 1018.2 1017.7 0.0
18/10:30am 9.7 2.3 -3.9 38 5.2 WSW 26 35 14 19 1018.1 1017.6 0.0
18/10:00am 9.2 2.9 -0.9 49 4.1 WSW 22 32 12 17 1018.3 1017.8 0.0
18/09:30am 8.6 2.7 -2.1 47 4.2 WSW 19 30 10 16 1018.5 1018.1 0.0
18/09:00am 8.0 1.7 -0.7 54 3.5 WSW 22 30 12 16 1018.3 1017.8 0.0
18/08:30am 7.2 1.2 -1.7 53 3.5 WSW 20 28 11 15 1018.2 1017.7 0.0
18/08:00am 6.3 -0.2 -2.1 55 3.2 WSW 22 30 12 16 1018.0 1017.5 0.0
18/07:30am 5.6 -0.5 -2.7 55 3.1 WSW 20 32 11 17 1017.7 1017.3 0.0
18/07:00am 5.0 -1.1 -2.6 58 2.8 WSW 20 32 11 17 1017.3 1016.9 0.0
18/06:30am 4.7 -1.9 -3.1 57 2.9 WSW 22 35 12 19 1016.8 1016.3 0.0
18/06:00am 4.6 -1.9 -2.7 59 2.7 WSW 22 32 12 17 1016.4 1015.9 0.0
18/05:30am 5.1 -1.5 -2.9 56 3.0 SW 22 35 12 19 1016.0 1015.6 0.0
18/05:14am 5.5 -3.0 -3.1 54 3.2 WSW 32 50 17 27 1015.4 1014.9 0.0
18/05:00am 5.7 -3.3 -2.4 56 3.1 WSW 35 52 19 28 1015.0 1014.5 0.0
18/04:38am 5.9 -3.4 -2.2 56 3.1 W 37 56 20 30 1014.6 1014.1 0.0
18/04:30am 5.7 -2.7 -2.4 56 3.1 WSW 32 43 17 23 1014.9 1014.4 0.0
18/04:00am 5.7 -1.5 -2.1 57 3.0 WSW 26 41 14 22 1015.0 1014.5 0.0
18/03:30am 5.6 -0.2 -1.8 59 2.8 WSW 19 24 10 13 1015.0 1014.5 0.0
18/03:00am 5.7 0.6 -1.7 59 2.8 WSW 15 24 8 13 1015.1 1014.6 0.0
18/02:30am 6.0 1.4 -1.4 59 2.9 SW 13 22 7 12 1015.0 1014.5 0.0
18/02:00am 5.9 1.3 -0.8 62 2.6 SW 13 20 7 11 1015.1 1014.6 0.0
18/01:30am 5.7 1.9 -0.8 63 2.6 SW 9 13 5 7 1015.3 1014.8 0.0
18/01:00am 6.0 1.8 -0.7 62 2.6 SSW 11 17 6 9 1015.3 1014.8 0.0
18/12:30am 6.9 2.4 -0.5 59 3.0 WSW 13 19 7 10 1015.2 1014.7 0.0
18/12:00am 7.1 1.9 0.3 62 2.8 SW 17 22 9 12 1015.3 1014.8 0.0
 
Date/Time
EST
Temp
°C
App
Temp
°C
Dew
Point
Rel
Hum
%
Delta-T
°C
Wind Press
QNH
hPa
Press
MSL
hPa
Rain
since 9 am
mm
Dir
 
Spd
km/h
Gust
km/h
Spd
kts
Gust
kts
17/11:30pm 7.6 0.7 0.3 60 3.0 WSW 26 39 14 21 1014.9 1014.4 0.0
17/11:00pm 7.8 0.5 0.3 59 3.1 WSW 28 43 15 23 1014.9 1014.4 0.0
17/10:42pm 8.0 0.4 0.3 58 3.2 WSW 30 48 16 26 1014.5 1014.0 0.0
17/10:30pm 8.1 0.4 0.1 57 3.3 WSW 30 46 16 25 1014.6 1014.1 0.0
17/10:28pm 8.0 0.7 0.3 58 3.2 WSW 28 46 15 25 1014.6 1014.1 0.0
17/10:00pm 7.9 1.1 0.6 60 3.0 WSW 26 37 14 20 1014.8 1014.3 0.0
17/09:30pm 8.3 0.3 0.5 58 3.3 WSW 32 43 17 23 1014.4 1013.9 0.0
17/09:00pm 8.6 1.5 1.1 59 3.2 WSW 28 44 15 24 1014.4 1013.9 0.0
17/08:30pm 8.2 3.3 2.2 66 2.6 WSW 17 28 9 15 1014.0 1013.5 0.0
17/08:00pm 9.0 2.8 1.9 61 3.1 WSW 24 35 13 19 1013.7 1013.2 0.0
17/07:30pm 9.3 2.6 1.7 59 3.3 WSW 26 37 14 20 1013.4 1012.8 0.0
17/07:00pm 9.4 2.3 1.6 58 3.4 WSW 28 44 15 24 1013.0 1012.5 0.0
17/06:30pm 9.5 3.2 1.7 58 3.4 WSW 24 32 13 17 1012.7 1012.2 0.0
17/06:00pm 9.8 1.9 1.2 55 3.7 WSW 32 46 17 25 1012.6 1012.1 0.0
17/05:39pm 10.3 2.1 0.6 51 4.1 WSW 33 52 18 28 1012.3 1011.8 0.0

Other Formats:

Comma delimited format used in spreadsheet applications
http://www.bom.gov.au/fwo/IDN60801/IDN60801.94746.axf

JavaScript Object Notation format (JSON) in row-major order
http://www.bom.gov.au/fwo/IDN60801/IDN60801.94746.json